Time;durP1;ratioP1;P1;durP2;ratioP2;P2;SDS_P1;SDS_P2;PMS_P1;PMS_P2;Temp;Humidity;BMP_temperature;BMP_pressure;BME280_temperature;BME280_humidity;BME280_pressure;Samples;Min_cycle;Max_cycle;Signal;HPM_P1;HPM_P2
2023/10/01 00:01:11;;;;;;;;;;;14.90;99.90;;;;;;7322600;19;9182;-75
2023/10/01 00:03:40;;;;;;;;;;;15.00;99.90;;;;;;7324469;19;9237;-75
2023/10/01 00:06:09;;;;;;;;;;;15.00;99.90;;;;;;7324348;19;9395;-75
2023/10/01 00:08:38;;;;;;;;;;;15.10;99.90;;;;;;7321974;19;9221;-75
2023/10/01 00:11:08;;;;;;;;;;;15.00;99.90;;;;;;7323156;19;10651;-75
2023/10/01 00:13:38;;;;;;;;;;;15.10;99.90;;;;;;7323502;19;9240;-75
2023/10/01 00:16:11;;;;;;;;;;;15.10;99.90;;;;;;7324574;19;9178;-75
2023/10/01 00:18:40;;;;;;;;;;;15.10;99.90;;;;;;7324284;19;9233;-75
2023/10/01 00:21:09;;;;;;;;;;;15.10;99.90;;;;;;7322932;19;10199;-75
2023/10/01 00:23:38;;;;;;;;;;;15.00;99.90;;;;;;7323039;19;9233;-75
2023/10/01 00:26:09;;;;;;;;;;;15.00;99.90;;;;;;7322941;19;9473;-75
2023/10/01 00:28:39;;;;;;;;;;;15.00;99.90;;;;;;7324257;19;9364;-75
2023/10/01 00:31:11;;;;;;;;;;;14.90;99.90;;;;;;7322530;19;9206;-75
2023/10/01 00:33:41;;;;;;;;;;;14.90;99.90;;;;;;7324181;19;10155;-75
2023/10/01 00:36:10;;;;;;;;;;;14.90;99.90;;;;;;7321755;19;9265;-75
2023/10/01 00:38:39;;;;;;;;;;;15.00;99.90;;;;;;7323119;19;9261;-75
2023/10/01 00:41:09;;;;;;;;;;;15.00;99.90;;;;;;7322808;19;9176;-75
2023/10/01 00:43:38;;;;;;;;;;;14.90;99.90;;;;;;7322691;19;9486;-75
2023/10/01 00:46:07;;;;;;;;;;;15.00;99.90;;;;;;7322614;19;9150;-75
2023/10/01 00:48:42;;;;;;;;;;;15.00;99.90;;;;;;7323142;19;9461;-75
2023/10/01 00:51:11;;;;;;;;;;;15.00;99.90;;;;;;7323131;19;9210;-75
2023/10/01 00:53:40;;;;;;;;;;;15.00;99.90;;;;;;7322798;19;9301;-75
2023/10/01 00:56:09;;;;;;;;;;;14.90;99.90;;;;;;7323566;19;9275;-75
2023/10/01 00:58:38;;;;;;;;;;;14.90;99.90;;;;;;7322917;19;9294;-75
2023/10/01 01:01:08;;;;;;;;;;;14.90;99.90;;;;;;7322571;19;9304;-75
2023/10/01 01:03:40;;;;;;;;;;;14.90;99.90;;;;;;7323131;19;9276;-75
2023/10/01 01:06:17;;;;;;;;;;;14.80;99.90;;;;;;7321909;19;9582;-75
2023/10/01 01:08:52;;;;;;;;;;;14.80;99.90;;;;;;7323238;19;9450;-75
2023/10/01 01:11:22;;;;;;;;;;;14.80;99.90;;;;;;7321527;19;10327;-75
2023/10/01 01:13:52;;;;;;;;;;;14.80;99.90;;;;;;7322283;19;9231;-75
2023/10/01 01:16:22;;;;;;;;;;;14.80;99.90;;;;;;7322697;19;9261;-75
2023/10/01 01:18:54;;;;;;;;;;;14.80;99.90;;;;;;7322265;19;9306;-75
2023/10/01 01:21:23;;;;;;;;;;;14.80;99.90;;;;;;7321667;19;9225;-75
2023/10/01 01:23:54;;;;;;;;;;;14.80;99.90;;;;;;7322785;19;9283;-75
2023/10/01 01:26:25;;;;;;;;;;;14.80;99.90;;;;;;7322034;19;9206;-75
2023/10/01 01:28:54;;;;;;;;;;;14.70;99.90;;;;;;7322101;19;9466;-75
2023/10/01 01:31:45;;;;;;;;;;;14.70;99.90;;;;;;7321642;19;9231;-76
2023/10/01 01:34:15;;;;;;;;;;;14.70;99.90;;;;;;7322390;19;9507;-75
2023/10/01 01:36:45;;;;;;;;;;;14.70;99.90;;;;;;7322880;19;9231;-75
2023/10/01 01:39:32;;;;;;;;;;;14.70;99.90;;;;;;7321270;19;9216;-75
2023/10/01 01:42:02;;;;;;;;;;;14.60;99.90;;;;;;7322352;19;10011;-75
2023/10/01 01:44:31;;;;;;;;;;;14.60;99.90;;;;;;7321059;19;9924;-75
2023/10/01 01:47:02;;;;;;;;;;;14.60;99.90;;;;;;7321697;19;9470;-75
2023/10/01 01:49:31;;;;;;;;;;;14.60;99.90;;;;;;7321800;19;9154;-75
2023/10/01 01:52:03;;;;;;;;;;;14.60;99.90;;;;;;7321616;19;11518;-75
2023/10/01 01:54:37;;;;;;;;;;;14.60;99.90;;;;;;7320873;19;9226;-75
2023/10/01 01:57:13;;;;;;;;;;;14.60;99.90;;;;;;7321144;19;9221;-75
2023/10/01 01:59:43;;;;;;;;;;;14.60;99.90;;;;;;7321477;19;9117;-75
2023/10/01 02:02:14;;;;;;;;;;;14.60;99.90;;;;;;7319882;19;10174;-75
2023/10/01 02:04:58;;;;;;;;;;;14.60;99.90;;;;;;7320548;19;9252;-75
2023/10/01 02:07:28;;;;;;;;;;;14.60;99.90;;;;;;7321356;19;10601;-75
2023/10/01 02:10:20;;;;;;;;;;;14.50;99.90;;;;;;7319439;19;9515;-75
2023/10/01 02:12:50;;;;;;;;;;;14.50;99.90;;;;;;7320225;19;9341;-75
2023/10/01 02:15:19;;;;;;;;;;;14.40;99.90;;;;;;7320941;19;9202;-75
2023/10/01 02:17:49;;;;;;;;;;;14.40;99.90;;;;;;7320769;19;9276;-75
2023/10/01 02:20:27;;;;;;;;;;;14.40;99.90;;;;;;7320223;19;9261;-75
2023/10/01 02:23:02;;;;;;;;;;;14.30;99.90;;;;;;7320964;19;9159;-75
2023/10/01 02:25:45;;;;;;;;;;;14.30;99.90;;;;;;7319494;19;9166;-75
2023/10/01 02:28:16;;;;;;;;;;;14.30;99.90;;;;;;7319859;19;9376;-75
2023/10/01 02:30:46;;;;;;;;;;;14.30;99.90;;;;;;7320256;19;9143;-75
2023/10/01 02:33:21;;;;;;;;;;;14.30;99.90;;;;;;7325179;19;9139;-75
2023/10/01 02:35:55;;;;;;;;;;;14.30;99.90;;;;;;7326378;19;9426;-75
2023/10/01 02:38:45;;;;;;;;;;;14.30;99.90;;;;;;7327186;19;9236;-75
2023/10/01 02:41:15;;;;;;;;;;;14.30;99.90;;;;;;7326173;19;9956;-75
2023/10/01 02:44:04;;;;;;;;;;;14.30;99.90;;;;;;7324774;19;9451;-75
2023/10/01 02:46:30;;;;;;;;;;;14.30;99.90;;;;;;7325711;19;11635;-75
2023/10/01 02:48:59;;;;;;;;;;;14.30;99.90;;;;;;7327160;19;9186;-75
2023/10/01 02:51:32;;;;;;;;;;;14.20;99.90;;;;;;7326342;19;9557;-75
2023/10/01 02:54:05;;;;;;;;;;;14.20;99.90;;;;;;7325394;19;9524;-75
2023/10/01 02:56:37;;;;;;;;;;;14.20;99.90;;;;;;7326243;19;9530;-75
2023/10/01 02:59:26;;;;;;;;;;;14.20;99.90;;;;;;7325181;19;9611;-75
2023/10/01 03:01:55;;;;;;;;;;;14.20;99.90;;;;;;7325233;19;9411;-75
2023/10/01 03:04:27;;;;;;;;;;;14.20;99.90;;;;;;7325928;19;9402;-75
2023/10/01 03:06:57;;;;;;;;;;;14.30;99.90;;;;;;7325602;19;9410;-75
2023/10/01 03:09:32;;;;;;;;;;;14.30;99.90;;;;;;7325864;19;9513;-75
2023/10/01 03:15:00;;;;;;;;;;;14.30;99.90;;;;;;7324882;19;9183;-75
2023/10/01 03:17:27;;;;;;;;;;;14.30;99.90;;;;;;7325576;19;9170;-74
2023/10/01 03:20:11;;;;;;;;;;;14.40;99.90;;;;;;7325131;19;9309;-75
2023/10/01 03:22:37;;;;;;;;;;;14.40;99.90;;;;;;7325648;19;9270;-75
2023/10/01 03:25:28;;;;;;;;;;;14.40;99.90;;;;;;7324604;19;9214;-75
2023/10/01 03:28:01;;;;;;;;;;;14.40;99.90;;;;;;7325169;19;9304;-75
2023/10/01 03:30:32;;;;;;;;;;;14.40;99.90;;;;;;7324856;19;9135;-75
2023/10/01 03:33:01;;;;;;;;;;;14.40;99.90;;;;;;7325103;19;9429;-75
2023/10/01 03:35:30;;;;;;;;;;;14.50;99.90;;;;;;7325269;19;9201;-75
2023/10/01 03:38:14;;;;;;;;;;;14.50;99.90;;;;;;7324347;19;9462;-75
2023/10/01 03:40:58;;;;;;;;;;;14.50;99.90;;;;;;7324756;19;9356;-75
2023/10/01 03:43:42;;;;;;;;;;;14.50;99.90;;;;;;7325032;19;11520;-75
2023/10/01 03:46:26;;;;;;;;;;;14.60;99.90;;;;;;7324900;19;9534;-75
2023/10/01 03:49:00;;;;;;;;;;;14.60;99.90;;;;;;7324670;19;9604;-75
2023/10/01 03:54:16;;;;;;;;;;;14.80;99.90;;;;;;7324151;19;9605;-75
2023/10/01 03:56:55;;;;;;;;;;;14.80;99.90;;;;;;7324213;19;9480;-75
2023/10/01 03:59:28;;;;;;;;;;;14.90;99.90;;;;;;7325040;19;8944;-75
2023/10/01 04:02:27;;;;;;;;;;;14.90;99.90;;;;;;7323691;19;9282;-75
2023/10/01 04:05:01;;;;;;;;;;;14.80;99.90;;;;;;7324367;19;9671;-75
2023/10/01 04:07:40;;;;;;;;;;;14.90;99.90;;;;;;7324599;19;9510;-74
2023/10/01 04:10:13;;;;;;;;;;;14.90;99.90;;;;;;7324041;19;10374;-75
2023/10/01 04:12:44;;;;;;;;;;;14.80;99.90;;;;;;7325034;19;9263;-76
2023/10/01 04:15:27;;;;;;;;;;;14.80;99.90;;;;;;7324503;19;9465;-75
2023/10/01 04:20:39;;;;;;;;;;;14.80;99.90;;;;;;7325536;19;9226;-75
2023/10/01 04:23:05;;;;;;;;;;;14.80;99.90;;;;;;7324405;19;9220;-75
2023/10/01 04:25:39;;;;;;;;;;;14.80;99.90;;;;;;7325113;19;9443;-75
2023/10/01 04:28:08;;;;;;;;;;;14.90;99.90;;;;;;7324118;19;10475;-75
2023/10/01 04:30:39;;;;;;;;;;;14.90;99.90;;;;;;7323478;19;9514;-75
2023/10/01 04:33:23;;;;;;;;;;;14.90;99.90;;;;;;7324104;19;9307;-76
2023/10/01 04:35:55;;;;;;;;;;;14.90;99.90;;;;;;7324483;19;9230;-75
2023/10/01 04:38:28;;;;;;;;;;;14.90;99.90;;;;;;7323312;19;9186;-75
2023/10/01 04:40:58;;;;;;;;;;;14.90;99.90;;;;;;7323262;19;9177;-75
2023/10/01 04:43:34;;;;;;;;;;;14.90;99.90;;;;;;7323528;19;9611;-75
2023/10/01 04:46:08;;;;;;;;;;;14.90;99.90;;;;;;7322740;19;9310;-75
2023/10/01 04:48:39;;;;;;;;;;;15.00;99.90;;;;;;7322443;19;10135;-75
2023/10/01 04:51:08;;;;;;;;;;;15.00;99.90;;;;;;7322760;19;12050;-75
2023/10/01 04:53:46;;;;;;;;;;;15.00;99.90;;;;;;7323128;19;9570;-75
2023/10/01 04:56:20;;;;;;;;;;;15.10;99.90;;;;;;7319861;19;10166;-76
2023/10/01 04:58:52;;;;;;;;;;;15.00;99.90;;;;;;7323219;19;9457;-75
2023/10/01 05:01:44;;;;;;;;;;;15.10;99.90;;;;;;7320649;19;9481;-75
2023/10/01 05:04:14;;;;;;;;;;;15.10;99.90;;;;;;7321821;19;9497;-75
2023/10/01 05:06:59;;;;;;;;;;;15.10;99.90;;;;;;7321812;19;11159;-75
2023/10/01 05:09:30;;;;;;;;;;;15.10;99.90;;;;;;7322262;19;9169;-75
2023/10/01 05:12:03;;;;;;;;;;;15.10;99.90;;;;;;7321263;19;9465;-75
2023/10/01 05:14:32;;;;;;;;;;;15.10;99.90;;;;;;7322446;19;9224;-75
2023/10/01 05:17:07;;;;;;;;;;;15.10;99.90;;;;;;7322833;19;9761;-75
2023/10/01 05:19:37;;;;;;;;;;;15.20;99.90;;;;;;7322050;19;9226;-75
2023/10/01 05:22:08;;;;;;;;;;;15.10;99.90;;;;;;7322143;19;9201;-75
2023/10/01 05:24:40;;;;;;;;;;;15.10;99.90;;;;;;7320590;19;10934;-75
2023/10/01 05:27:18;;;;;;;;;;;15.10;99.90;;;;;;7322567;19;9808;-75
2023/10/01 05:29:48;;;;;;;;;;;15.10;99.90;;;;;;7322414;19;11004;-75
2023/10/01 05:32:20;;;;;;;;;;;15.10;99.90;;;;;;7322228;19;9128;-75
2023/10/01 05:34:50;;;;;;;;;;;15.20;99.90;;;;;;7321964;19;9414;-75
2023/10/01 05:37:24;;;;;;;;;;;15.20;99.90;;;;;;7322460;19;9399;-75
2023/10/01 05:39:59;;;;;;;;;;;15.20;99.90;;;;;;7322271;19;9233;-75
2023/10/01 05:42:31;;;;;;;;;;;15.10;99.90;;;;;;7321636;19;10589;-75
2023/10/01 05:45:04;;;;;;;;;;;15.10;99.90;;;;;;7321604;19;10607;-75
2023/10/01 05:47:50;;;;;;;;;;;15.20;99.90;;;;;;7320599;19;9125;-75
2023/10/01 05:50:22;;;;;;;;;;;15.10;99.90;;;;;;7321589;19;9435;-75
2023/10/01 05:52:53;;;;;;;;;;;15.00;99.90;;;;;;7321034;19;9291;-75
2023/10/01 05:55:22;;;;;;;;;;;15.00;99.90;;;;;;7321124;19;9150;-75
2023/10/01 05:57:52;;;;;;;;;;;15.00;99.90;;;;;;7320824;19;9254;-75
2023/10/01 06:00:27;;;;;;;;;;;15.00;99.90;;;;;;7321337;19;9229;-75
2023/10/01 06:03:03;;;;;;;;;;;15.10;99.90;;;;;;7321251;19;9239;-75
2023/10/01 06:05:43;;;;;;;;;;;15.20;99.90;;;;;;7321034;19;9464;-75
2023/10/01 06:08:17;;;;;;;;;;;15.20;99.90;;;;;;7324822;19;9602;-75
2023/10/01 06:10:59;;;;;;;;;;;15.20;99.90;;;;;;7326325;19;9299;-76
2023/10/01 06:13:31;;;;;;;;;;;15.20;99.90;;;;;;7327473;19;9340;-76
2023/10/01 06:16:11;;;;;;;;;;;15.20;99.90;;;;;;7327566;19;9234;-75
2023/10/01 06:18:49;;;;;;;;;;;15.20;99.90;;;;;;7328315;19;9449;-76
2023/10/01 06:21:19;;;;;;;;;;;15.10;99.90;;;;;;7327197;19;9331;-76
2023/10/01 06:24:10;;;;;;;;;;;15.10;99.90;;;;;;7325341;19;9289;-76
2023/10/01 06:26:42;;;;;;;;;;;15.00;99.90;;;;;;7326962;19;9219;-76
2023/10/01 06:29:13;;;;;;;;;;;15.00;99.90;;;;;;7327217;19;9630;-75
2023/10/01 06:32:00;;;;;;;;;;;15.00;99.90;;;;;;7327363;19;9582;-76
2023/10/01 06:34:32;;;;;;;;;;;15.00;99.90;;;;;;7326408;19;9281;-76
2023/10/01 06:37:05;;;;;;;;;;;15.10;99.90;;;;;;7326689;19;10346;-76
2023/10/01 06:39:35;;;;;;;;;;;15.20;99.90;;;;;;7326255;19;9270;-76
2023/10/01 06:44:55;;;;;;;;;;;15.10;99.90;;;;;;7325574;19;8997;-76
2023/10/01 06:47:25;;;;;;;;;;;15.00;99.90;;;;;;7324698;19;9289;-76
2023/10/01 06:50:14;;;;;;;;;;;15.00;99.90;;;;;;7326751;19;9136;-76
2023/10/01 06:52:44;;;;;;;;;;;15.00;99.90;;;;;;7326207;19;9265;-76
2023/10/01 06:55:33;;;;;;;;;;;15.00;99.90;;;;;;7325027;19;9181;-76
2023/10/01 06:58:06;;;;;;;;;;;15.00;99.90;;;;;;7326434;19;9167;-76
2023/10/01 07:00:36;;;;;;;;;;;15.10;99.90;;;;;;7325505;19;9191;-76
2023/10/01 07:03:21;;;;;;;;;;;15.10;99.90;;;;;;7325064;19;9296;-76
2023/10/01 07:05:56;;;;;;;;;;;15.10;99.90;;;;;;7326531;19;9297;-76
2023/10/01 07:08:37;;;;;;;;;;;15.10;99.90;;;;;;7325972;19;9340;-76
2023/10/01 07:11:11;;;;;;;;;;;15.00;99.90;;;;;;7324925;19;9397;-76
2023/10/01 07:13:41;;;;;;;;;;;15.00;99.90;;;;;;7326030;19;9233;-76
2023/10/01 07:16:10;;;;;;;;;;;15.10;99.90;;;;;;7325704;19;9290;-76
2023/10/01 07:18:59;;;;;;;;;;;15.00;99.90;;;;;;7322818;19;9187;-76
2023/10/01 07:21:31;;;;;;;;;;;15.00;99.90;;;;;;7325352;19;9190;-76
2023/10/01 07:24:01;;;;;;;;;;;15.10;99.90;;;;;;7325338;19;9457;-76
2023/10/01 07:26:30;;;;;;;;;;;15.10;99.90;;;;;;7325178;19;9218;-76
2023/10/01 07:29:01;;;;;;;;;;;15.20;99.90;;;;;;7325589;19;8944;-76
2023/10/01 07:31:35;;;;;;;;;;;15.20;99.90;;;;;;7325368;19;9225;-76
2023/10/01 07:34:12;;;;;;;;;;;15.20;99.90;;;;;;7325444;19;9210;-76
2023/10/01 07:36:45;;;;;;;;;;;15.30;99.90;;;;;;7324510;19;10458;-76
2023/10/01 07:39:15;;;;;;;;;;;15.40;99.90;;;;;;7323772;19;10154;-76
2023/10/01 07:41:44;;;;;;;;;;;15.40;99.90;;;;;;7324919;19;9159;-76
2023/10/01 07:44:15;;;;;;;;;;;15.50;99.90;;;;;;7325085;19;9693;-76
2023/10/01 07:46:46;;;;;;;;;;;15.60;99.90;;;;;;7324516;19;10333;-76
2023/10/01 07:49:18;;;;;;;;;;;15.70;99.90;;;;;;7324618;19;10662;-76
2023/10/01 07:51:50;;;;;;;;;;;15.70;99.90;;;;;;7324170;19;10395;-76
2023/10/01 07:54:22;;;;;;;;;;;15.70;99.90;;;;;;7324733;19;9266;-76
2023/10/01 07:56:56;;;;;;;;;;;15.70;99.90;;;;;;7324152;19;9254;-76
2023/10/01 07:59:36;;;;;;;;;;;15.80;99.90;;;;;;7324764;19;9365;-76
2023/10/01 08:02:28;;;;;;;;;;;15.90;99.90;;;;;;7323480;19;9285;-76
2023/10/01 08:04:58;;;;;;;;;;;16.00;99.90;;;;;;7323565;19;9324;-76
2023/10/01 08:07:39;;;;;;;;;;;16.10;99.90;;;;;;7324676;19;9273;-76
2023/10/01 08:10:16;;;;;;;;;;;16.20;99.90;;;;;;7323955;19;9191;-76
2023/10/01 08:15:38;;;;;;;;;;;16.20;99.90;;;;;;7324257;19;9189;-76
2023/10/01 08:20:57;;;;;;;;;;;16.40;99.90;;;;;;7323848;19;10203;-76
2023/10/01 08:23:30;;;;;;;;;;;16.30;99.90;;;;;;7323422;19;9316;-76
2023/10/01 08:26:43;;;;;;;;;;;16.20;99.90;;;;;;7323932;19;9214;-76
2023/10/01 08:28:57;;;;;;;;;;;16.30;99.90;;;;;;7323644;19;9234;-76
2023/10/01 08:36:49;;;;;;;;;;;16.60;99.90;;;;;;7323345;19;9295;-76
2023/10/01 08:39:53;;;;;;;;;;;16.60;99.90;;;;;;7322297;19;9237;-76
2023/10/01 08:42:22;;;;;;;;;;;16.50;99.90;;;;;;7322927;19;8945;-76
2023/10/01 08:44:54;;;;;;;;;;;16.60;99.90;;;;;;7322917;19;9238;-76
2023/10/01 08:47:27;;;;;;;;;;;16.60;99.90;;;;;;7322141;19;11195;-76
2023/10/01 08:50:15;;;;;;;;;;;16.70;99.90;;;;;;7322917;19;9237;-76
2023/10/01 08:52:52;;;;;;;;;;;16.60;99.90;;;;;;7323074;19;9535;-76
2023/10/01 08:55:35;;;;;;;;;;;16.50;99.90;;;;;;7322587;19;9261;-76
2023/10/01 08:58:14;;;;;;;;;;;16.50;99.90;;;;;;7322563;19;9230;-76
2023/10/01 09:00:48;;;;;;;;;;;16.40;99.90;;;;;;7322643;19;9714;-75
2023/10/01 09:03:26;;;;;;;;;;;16.40;99.90;;;;;;7322797;19;9396;-76
2023/10/01 09:06:04;;;;;;;;;;;16.60;99.90;;;;;;7322230;19;9385;-76
2023/10/01 09:08:42;;;;;;;;;;;16.60;99.90;;;;;;7322747;19;9294;-76
2023/10/01 09:11:15;;;;;;;;;;;16.50;99.90;;;;;;7321444;19;9311;-76
2023/10/01 09:13:58;;;;;;;;;;;16.50;99.90;;;;;;7322816;19;9142;-76
2023/10/01 09:16:37;;;;;;;;;;;16.50;99.90;;;;;;7321418;19;9286;-76
2023/10/01 09:19:30;;;;;;;;;;;16.60;99.90;;;;;;7322885;19;9348;-75
2023/10/01 09:21:57;;;;;;;;;;;16.60;99.90;;;;;;7319635;19;9504;-76
2023/10/01 09:24:38;;;;;;;;;;;16.80;99.90;;;;;;7321691;19;9447;-76
2023/10/01 09:27:18;;;;;;;;;;;16.80;99.90;;;;;;7320054;19;9265;-76
2023/10/01 09:29:48;;;;;;;;;;;16.90;99.90;;;;;;7322852;19;9464;-75
2023/10/01 09:32:19;;;;;;;;;;;16.90;99.90;;;;;;7322099;19;9310;-76
2023/10/01 09:34:58;;;;;;;;;;;17.00;99.90;;;;;;7321593;19;9241;-76
2023/10/01 09:37:52;;;;;;;;;;;17.10;99.90;;;;;;7321883;19;9281;-76
2023/10/01 09:43:17;;;;;;;;;;;17.30;99.90;;;;;;7321829;19;9317;-76
2023/10/01 09:45:49;;;;;;;;;;;17.50;99.90;;;;;;7322789;19;9455;-76
2023/10/01 09:48:33;;;;;;;;;;;17.70;99.90;;;;;;7322690;19;9253;-76
2023/10/01 09:51:13;;;;;;;;;;;17.80;99.90;;;;;;7322504;19;10797;-76
2023/10/01 09:53:48;;;;;;;;;;;18.00;99.90;;;;;;7322699;19;9059;-76
2023/10/01 09:56:26;;;;;;;;;;;18.00;99.90;;;;;;7323411;19;10715;-76
2023/10/01 09:59:03;;;;;;;;;;;18.10;99.90;;;;;;7322719;19;9907;-76
2023/10/01 10:01:34;;;;;;;;;;;18.20;99.90;;;;;;7322155;19;9218;-76
2023/10/01 10:04:04;;;;;;;;;;;18.30;99.90;;;;;;7321252;19;9116;-76
2023/10/01 10:06:34;;;;;;;;;;;18.30;99.90;;;;;;7321104;19;9230;-76
2023/10/01 10:09:06;;;;;;;;;;;18.40;99.90;;;;;;7320485;19;9202;-76
2023/10/01 10:11:40;;;;;;;;;;;18.50;99.90;;;;;;7319358;19;9138;-75
2023/10/01 10:14:41;;;;;;;;;;;18.50;99.90;;;;;;7320255;19;9285;-76
2023/10/01 10:17:18;;;;;;;;;;;18.60;99.90;;;;;;7320811;19;9494;-76
2023/10/01 10:20:15;;;;;;;;;;;18.70;99.90;;;;;;7320709;19;9253;-76
2023/10/01 10:23:21;;;;;;;;;;;18.70;99.90;;;;;;7320746;19;10278;-76
2023/10/01 10:25:50;;;;;;;;;;;18.90;99.90;;;;;;7319146;19;9198;-76
2023/10/01 10:28:29;;;;;;;;;;;19.10;99.90;;;;;;7319506;19;10697;-76
2023/10/01 10:31:29;;;;;;;;;;;19.30;99.90;;;;;;7320139;19;9638;-76
2023/10/01 10:34:25;;;;;;;;;;;19.50;99.90;;;;;;7320366;19;8944;-76
2023/10/01 10:36:54;;;;;;;;;;;19.70;99.90;;;;;;7320239;19;9242;-76
2023/10/01 10:40:01;;;;;;;;;;;19.90;99.90;;;;;;7319604;19;9172;-76
2023/10/01 10:42:28;;;;;;;;;;;20.10;99.90;;;;;;7319799;19;10154;-75
2023/10/01 10:45:26;;;;;;;;;;;20.30;99.90;;;;;;7320585;19;9258;-76
2023/10/01 10:47:59;;;;;;;;;;;20.40;99.90;;;;;;7317976;19;9248;-76
2023/10/01 10:50:48;;;;;;;;;;;20.40;99.90;;;;;;7319321;19;9177;-76
2023/10/01 10:53:19;;;;;;;;;;;20.50;99.90;;;;;;7321482;19;9428;-76
2023/10/01 10:56:00;;;;;;;;;;;20.50;99.90;;;;;;7326222;19;10328;-76
2023/10/01 10:58:31;;;;;;;;;;;20.60;99.90;;;;;;7325869;19;8944;-76
2023/10/01 11:01:15;;;;;;;;;;;20.70;99.90;;;;;;7324215;19;9479;-76
2023/10/01 11:03:47;;;;;;;;;;;20.70;99.90;;;;;;7325561;19;9249;-75
2023/10/01 11:06:24;;;;;;;;;;;20.60;99.90;;;;;;7325798;19;9004;-76
2023/10/01 11:08:55;;;;;;;;;;;20.70;99.90;;;;;;7326118;19;8944;-76
2023/10/01 11:11:25;;;;;;;;;;;20.70;99.90;;;;;;7325258;19;9335;-76
2023/10/01 11:14:02;;;;;;;;;;;20.60;99.90;;;;;;7325975;19;9162;-76
2023/10/01 11:16:37;;;;;;;;;;;20.60;99.90;;;;;;7325480;19;9106;-76
2023/10/01 11:19:16;;;;;;;;;;;20.60;99.90;;;;;;7325670;19;9170;-76
2023/10/01 11:21:58;;;;;;;;;;;20.50;99.90;;;;;;7324546;19;10304;-76
2023/10/01 11:24:30;;;;;;;;;;;20.60;99.90;;;;;;7325523;19;9323;-76
2023/10/01 11:27:18;;;;;;;;;;;20.50;99.90;;;;;;7325156;19;10369;-76
2023/10/01 11:30:16;;;;;;;;;;;20.50;99.90;;;;;;7323882;19;9023;-76
2023/10/01 11:33:03;;;;;;;;;;;20.50;99.90;;;;;;7324796;19;9222;-75
2023/10/01 11:35:34;;;;;;;;;;;20.50;99.90;;;;;;7324689;19;8945;-76
2023/10/01 11:38:10;;;;;;;;;;;20.50;99.90;;;;;;7325354;19;9233;-76
2023/10/01 11:43:32;;;;;;;;;;;20.50;99.90;;;;;;7325408;19;9225;-75
2023/10/01 11:46:23;;;;;;;;;;;20.50;99.90;;;;;;7324845;19;9326;-75
2023/10/01 11:48:57;;;;;;;;;;;20.50;99.90;;;;;;7324821;19;9249;-75
2023/10/01 11:51:42;;;;;;;;;;;20.50;99.90;;;;;;7324110;19;9349;-76
2023/10/01 11:54:15;;;;;;;;;;;20.50;99.90;;;;;;7325412;19;9283;-76
2023/10/01 11:56:47;;;;;;;;;;;20.50;99.90;;;;;;7324301;19;9129;-76
2023/10/01 11:59:22;;;;;;;;;;;20.50;99.90;;;;;;7325258;19;9218;-76
2023/10/01 12:01:52;;;;;;;;;;;20.50;99.90;;;;;;7323894;19;9206;-76
2023/10/01 12:07:15;;;;;;;;;;;20.50;99.90;;;;;;7323878;19;9466;-75
2023/10/01 12:09:48;;;;;;;;;;;20.50;99.90;;;;;;7325123;19;9247;-76
2023/10/01 12:12:18;;;;;;;;;;;20.50;99.90;;;;;;7324502;19;9475;-76
2023/10/01 12:14:56;;;;;;;;;;;20.50;99.90;;;;;;7324467;19;9214;-75
2023/10/01 12:17:25;;;;;;;;;;;20.50;99.90;;;;;;7323204;19;9439;-76
2023/10/01 12:19:59;;;;;;;;;;;20.50;99.90;;;;;;7323770;19;9406;-75
2023/10/01 12:22:29;;;;;;;;;;;20.50;99.90;;;;;;7323869;19;9077;-73
2023/10/01 12:25:03;;;;;;;;;;;20.50;99.90;;;;;;7322848;19;9165;-73
2023/10/01 12:27:37;;;;;;;;;;;20.60;99.90;;;;;;7323074;19;9322;-73
2023/10/01 12:30:10;;;;;;;;;;;20.60;99.90;;;;;;7323409;19;9576;-73
2023/10/01 12:32:48;;;;;;;;;;;20.60;99.90;;;;;;7323142;19;9230;-75
2023/10/01 12:35:27;;;;;;;;;;;20.60;99.90;;;;;;7324091;19;9281;-76
2023/10/01 12:38:05;;;;;;;;;;;20.60;99.90;;;;;;7323311;19;9158;-75
2023/10/01 12:40:36;;;;;;;;;;;20.60;99.90;;;;;;7322966;19;9502;-73
2023/10/01 12:43:32;;;;;;;;;;;20.60;99.90;;;;;;7323512;19;9304;-73
2023/10/01 12:45:52;;;;;;;;;;;20.70;99.90;;;;;;7322303;19;9255;-73
2023/10/01 12:48:22;;;;;;;;;;;20.70;99.90;;;;;;7323204;19;9264;-73
2023/10/01 12:50:59;;;;;;;;;;;20.80;99.90;;;;;;7322187;19;9224;-73
2023/10/01 12:53:29;;;;;;;;;;;20.80;99.90;;;;;;7323576;19;9243;-73
2023/10/01 12:56:02;;;;;;;;;;;20.80;99.90;;;;;;7322930;19;9154;-73
2023/10/01 12:58:39;;;;;;;;;;;20.80;99.90;;;;;;7322504;19;9272;-73
2023/10/01 13:01:07;;;;;;;;;;;20.90;99.90;;;;;;7321818;19;9176;-75
2023/10/01 13:03:42;;;;;;;;;;;21.00;99.90;;;;;;7322084;19;9265;-73
2023/10/01 13:06:12;;;;;;;;;;;21.00;99.90;;;;;;7321111;19;9198;-73
2023/10/01 13:08:44;;;;;;;;;;;21.10;99.90;;;;;;7322813;19;9226;-73
2023/10/01 13:11:46;;;;;;;;;;;21.20;99.90;;;;;;7322044;19;9795;-73
2023/10/01 13:14:17;;;;;;;;;;;21.10;99.90;;;;;;7322523;19;8944;-73
2023/10/01 13:16:50;;;;;;;;;;;21.20;99.90;;;;;;7320346;19;9473;-73
2023/10/01 13:19:23;;;;;;;;;;;21.20;99.90;;;;;;7322486;19;9529;-73
2023/10/01 13:21:53;;;;;;;;;;;21.30;99.90;;;;;;7321851;19;10311;-76
2023/10/01 13:24:22;;;;;;;;;;;21.20;99.90;;;;;;7322855;19;9281;-75
2023/10/01 13:27:10;;;;;;;;;;;21.20;99.10;;;;;;7322300;19;9525;-76
2023/10/01 13:29:40;;;;;;;;;;;21.20;99.40;;;;;;7322511;19;9198;-76
2023/10/01 13:32:26;;;;;;;;;;;21.20;99.10;;;;;;7322652;19;9229;-76
2023/10/01 13:35:20;;;;;;;;;;;21.20;98.60;;;;;;7322304;19;9298;-76
2023/10/01 13:37:48;;;;;;;;;;;21.10;99.30;;;;;;7322015;19;9521;-76
2023/10/01 13:40:28;;;;;;;;;;;21.10;99.40;;;;;;7322308;19;9589;-76
2023/10/01 14:10:05;;;;;;;;;;;21.00;99.30;;;;;;7321027;19;9474;-73
2023/10/01 14:15:25;;;;;;;;;;;21.00;99.10;;;;;;7321072;19;9225;-76
2023/10/01 14:17:55;;;;;;;;;;;21.00;99.40;;;;;;7321330;19;9230;-76
2023/10/01 14:23:07;;;;;;;;;;;20.90;99.60;;;;;;7321059;19;9497;-76
2023/10/01 14:25:52;;;;;;;;;;;21.00;99.60;;;;;;7320601;19;9430;-76
2023/10/01 14:28:23;;;;;;;;;;;21.00;99.70;;;;;;7322555;19;9238;-76
2023/10/01 14:31:02;;;;;;;;;;;21.00;99.40;;;;;;7327359;19;9403;-76
2023/10/01 14:33:33;;;;;;;;;;;21.00;99.50;;;;;;7327930;19;9158;-75
2023/10/01 14:36:03;;;;;;;;;;;21.10;99.40;;;;;;7327658;19;8944;-76
2023/10/01 14:38:40;;;;;;;;;;;21.10;99.30;;;;;;7326631;19;9166;-76
2023/10/01 14:41:15;;;;;;;;;;;21.10;99.20;;;;;;7326399;19;11400;-75
2023/10/01 14:43:51;;;;;;;;;;;21.00;99.30;;;;;;7327880;19;9395;-76
2023/10/01 14:46:30;;;;;;;;;;;21.10;98.90;;;;;;7327814;19;9138;-75
2023/10/01 14:49:04;;;;;;;;;;;21.10;99.70;;;;;;7325580;19;9732;-76
2023/10/01 14:51:34;;;;;;;;;;;21.10;99.30;;;;;;7327158;19;9209;-76
2023/10/01 14:54:05;;;;;;;;;;;21.10;99.20;;;;;;7327042;19;9932;-76
2023/10/01 14:56:35;;;;;;;;;;;21.20;99.40;;;;;;7326379;19;10162;-76
2023/10/01 14:59:05;;;;;;;;;;;21.20;98.90;;;;;;7326268;19;9218;-76
2023/10/01 15:01:40;;;;;;;;;;;21.10;99.20;;;;;;7326125;19;9456;-76
2023/10/01 15:04:17;;;;;;;;;;;21.10;99.10;;;;;;7326881;19;9302;-75
2023/10/01 15:06:56;;;;;;;;;;;21.10;99.50;;;;;;7325990;19;10223;-75
2023/10/01 15:09:26;;;;;;;;;;;21.00;99.50;;;;;;7328306;19;9138;-75
2023/10/01 15:11:57;;;;;;;;;;;21.00;99.70;;;;;;7328138;19;9483;-76
2023/10/01 15:14:28;;;;;;;;;;;21.00;99.50;;;;;;7327523;19;9239;-76
2023/10/01 15:17:02;;;;;;;;;;;21.00;99.60;;;;;;7327700;19;9178;-76
2023/10/01 15:19:46;;;;;;;;;;;21.00;99.90;;;;;;7328276;19;9206;-76
2023/10/01 15:22:17;;;;;;;;;;;21.00;99.90;;;;;;7329003;19;9123;-75
2023/10/01 15:24:47;;;;;;;;;;;21.00;99.90;;;;;;7327874;19;9258;-75
2023/10/01 15:27:23;;;;;;;;;;;21.00;99.90;;;;;;7327544;19;9433;-76
2023/10/01 15:29:53;;;;;;;;;;;21.00;99.90;;;;;;7328199;19;9182;-76
2023/10/01 15:32:29;;;;;;;;;;;21.00;99.90;;;;;;7326430;19;10320;-76
2023/10/01 15:34:59;;;;;;;;;;;21.00;99.90;;;;;;7325026;19;9642;-76
2023/10/01 15:37:29;;;;;;;;;;;21.00;99.80;;;;;;7327578;19;9514;-76
2023/10/01 15:40:00;;;;;;;;;;;21.00;99.90;;;;;;7326205;19;9303;-76
2023/10/01 15:42:34;;;;;;;;;;;20.90;99.90;;;;;;7325231;19;9348;-76
2023/10/01 15:45:15;;;;;;;;;;;20.90;99.90;;;;;;7324411;19;9467;-76
2023/10/01 15:48:07;;;;;;;;;;;20.90;99.90;;;;;;7322682;19;10143;-76
2023/10/01 15:50:39;;;;;;;;;;;20.80;99.90;;;;;;7324933;19;9447;-76
2023/10/01 15:53:17;;;;;;;;;;;20.80;99.90;;;;;;7325489;19;9229;-76
2023/10/01 15:55:59;;;;;;;;;;;20.80;99.90;;;;;;7324724;19;9249;-76
2023/10/01 15:58:29;;;;;;;;;;;20.70;99.90;;;;;;7325084;19;9207;-76
2023/10/01 16:00:59;;;;;;;;;;;20.70;99.90;;;;;;7325327;19;9450;-76
2023/10/01 16:03:33;;;;;;;;;;;20.70;99.90;;;;;;7325345;19;9399;-75
2023/10/01 16:06:10;;;;;;;;;;;20.70;99.90;;;;;;7324173;19;9544;-76
2023/10/01 16:08:42;;;;;;;;;;;20.60;99.90;;;;;;7325732;19;9235;-76
2023/10/01 16:11:12;;;;;;;;;;;20.60;99.90;;;;;;7323496;19;8944;-76
2023/10/01 16:13:52;;;;;;;;;;;20.60;99.90;;;;;;7324957;19;9253;-76
2023/10/01 16:16:26;;;;;;;;;;;20.50;99.90;;;;;;7324758;19;9500;-76
2023/10/01 16:18:59;;;;;;;;;;;20.50;99.90;;;;;;7322559;19;9317;-76